Time;durP1;ratioP1;P1;durP2;ratioP2;P2;SDS_P1;SDS_P2;PMS_P1;PMS_P2;Temp;Humidity;BMP_temperature;BMP_pressure;BME280_temperature;BME280_humidity;BME280_pressure;Samples;Min_cycle;Max_cycle;Signal;HPM_P1;HPM_P2
2023/01/13 00:00:56;;;;;;;10.30;4.10;;;;;;;5.07;85.02;101950.66;5009875;28;20057;-89
2023/01/13 00:03:21;;;;;;;20.63;9.20;;;;;;;5.10;84.76;101958.31;4993765;28;20037;-89
2023/01/13 00:05:47;;;;;;;13.70;8.02;;;;;;;5.07;84.52;101958.34;4993850;28;20046;-89
2023/01/13 00:08:12;;;;;;;7.93;6.93;;;;;;;5.13;83.93;101954.91;5010131;28;20029;-88
2023/01/13 00:10:38;;;;;;;7.78;4.22;;;;;;;5.11;84.01;101962.63;4993750;28;20516;-89
2023/01/13 00:13:03;;;;;;;8.23;5.47;;;;;;;5.07;84.31;101954.94;4993929;28;20030;-88
2023/01/13 00:15:29;;;;;;;8.88;5.47;;;;;;;5.11;84.37;101967.75;4993725;28;20493;-89
2023/01/13 00:17:54;;;;;;;5.28;3.78;;;;;;;5.11;84.54;101961.75;4993670;28;20374;-88
2023/01/13 00:20:20;;;;;;;6.43;2.58;;;;;;;5.12;83.82;101968.59;4993642;28;20044;-89
2023/01/13 00:22:45;;;;;;;9.55;4.00;;;;;;;5.11;84.16;101969.44;4993649;28;20025;-89
2023/01/13 00:25:11;;;;;;;4.22;3.53;;;;;;;5.08;84.43;101972.88;4993423;28;20071;-89
2023/01/13 00:27:37;;;;;;;6.88;3.72;;;;;;;5.02;85.17;101969.50;4993336;28;20052;-88
2023/01/13 00:30:03;;;;;;;6.65;4.20;;;;;;;4.95;85.06;101960.13;5009954;28;20037;-88
2023/01/13 00:32:30;;;;;;;5.05;2.08;;;;;;;4.85;84.92;101939.66;4993709;28;20041;-91
2023/01/13 00:34:55;;;;;;;3.22;2.75;;;;;;;5.00;86.11;101968.63;4993212;28;20029;-89
2023/01/13 00:37:22;;;;;;;5.47;3.85;;;;;;;5.00;85.59;101968.63;4993785;28;20549;-89
2023/01/13 00:39:47;;;;;;;7.35;4.78;;;;;;;4.87;85.86;101948.19;5009785;28;20493;-89
2023/01/13 00:44:57;;;;;;;3.92;3.30;;;;;;;5.02;85.82;101980.63;5009679;28;20069;-89
2023/01/13 00:47:22;;;;;;;9.98;5.30;;;;;;;4.87;85.27;101942.22;4993327;28;20069;-89
2023/01/13 00:49:49;;;;;;;8.30;5.13;;;;;;;5.08;84.98;101979.72;5009426;28;20493;-89
2023/01/13 00:52:14;;;;;;;10.50;5.07;;;;;;;5.03;84.85;101966.94;4993746;28;20033;-89
2023/01/13 00:57:24;;;;;;;14.63;6.65;;;;;;;4.99;84.99;101956.69;5010601;28;20037;-89
2023/01/13 00:59:49;;;;;;;7.97;5.40;;;;;;;5.02;84.89;101965.22;5010777;28;20025;-90
2023/01/13 01:02:15;;;;;;;9.40;5.30;;;;;;;5.03;85.14;101960.94;5009607;28;20130;-88
2023/01/13 01:04:40;;;;;;;17.10;4.63;;;;;;;4.93;85.13;101936.22;5009529;28;20026;-89
2023/01/13 01:07:06;;;;;;;8.20;5.07;;;;;;;4.97;84.89;101935.31;5009660;28;20050;-89
2023/01/13 01:09:33;;;;;;;14.38;5.97;;;;;;;5.11;85.04;101954.94;5009263;28;20034;-88
2023/01/13 01:11:59;;;;;;;6.53;4.78;;;;;;;5.12;84.84;101950.66;5009543;28;20022;-89
2023/01/13 01:14:26;;;;;;;6.35;5.25;;;;;;;5.11;84.84;101952.38;5013192;28;20124;-89
2023/01/13 01:16:51;;;;;;;11.68;6.40;;;;;;;5.12;85.00;101950.66;4997220;28;20113;-88
2023/01/13 01:19:17;;;;;;;7.55;5.35;;;;;;;5.16;84.72;101947.19;5013014;28;20487;-88
2023/01/13 01:21:43;;;;;;;9.93;6.93;;;;;;;5.08;84.78;101928.41;4996648;28;20029;-88
2023/01/13 01:24:08;;;;;;;12.40;6.70;;;;;;;4.93;84.55;101911.41;4996931;28;20033;-89
2023/01/13 01:26:34;;;;;;;7.57;5.50;;;;;;;5.12;84.92;101946.38;5012905;28;20037;-88
2023/01/13 01:29:01;;;;;;;8.07;6.57;;;;;;;5.01;84.55;101937.84;5014191;28;20044;-90
2023/01/13 01:31:30;;;;;;;9.93;6.60;;;;;;;5.06;84.79;101935.28;5012990;28;20076;-88
2023/01/13 01:33:55;;;;;;;9.43;5.75;;;;;;;5.02;84.66;101943.88;4997084;28;20025;-88
2023/01/13 01:36:21;;;;;;;8.00;5.25;;;;;;;5.01;85.02;101942.13;4996666;28;20034;-89
2023/01/13 01:38:47;;;;;;;11.75;6.70;;;;;;;5.05;84.80;101948.97;4996224;28;20185;-89
2023/01/13 01:41:18;;;;;;;9.43;5.78;;;;;;;5.03;84.93;101937.88;4996420;28;20552;-89
2023/01/13 01:44:02;;;;;;;7.95;6.25;;;;;;;5.03;85.21;101932.75;4996715;28;20167;-89
2023/01/13 01:46:39;;;;;;;12.63;7.43;;;;;;;4.92;85.20;101926.78;5012855;28;20079;-89
2023/01/13 01:49:12;;;;;;;11.27;6.35;;;;;;;4.78;85.63;101914.88;4996307;28;20069;-89
2023/01/13 01:51:43;;;;;;;8.32;4.57;;;;;;;4.94;85.79;101930.22;5012793;28;20046;-89
2023/01/13 01:54:09;;;;;;;8.05;5.00;;;;;;;4.85;85.35;101921.69;4997048;28;20515;-89
2023/01/13 01:56:35;;;;;;;7.75;3.88;;;;;;;4.85;85.66;101911.44;4996297;28;20026;-88
2023/01/13 01:59:00;;;;;;;7.82;5.68;;;;;;;4.97;85.53;101935.31;4996308;28;20033;-89
2023/01/13 02:01:26;;;;;;;8.63;5.45;;;;;;;4.83;85.30;101917.44;4996089;28;20045;-89
2023/01/13 02:03:56;;;;;;;20.02;4.78;;;;;;;4.98;85.66;101935.31;4995600;28;20041;-89
2023/01/13 02:06:22;;;;;;;4.82;3.65;;;;;;;5.04;85.23;101929.31;4995883;28;20030;-89
2023/01/13 02:08:48;;;;;;;8.50;5.80;;;;;;;4.78;85.35;101889.25;5012533;28;20476;-88
2023/01/13 02:14:33;;;;;;;6.38;4.63;;;;;;;4.95;84.85;101899.44;5008182;28;20061;-88
2023/01/13 02:17:05;;;;;;;9.68;4.97;;;;;;;5.01;84.48;101911.34;4995440;28;20175;-88
2023/01/13 02:19:49;;;;;;;7.72;4.68;;;;;;;5.12;84.77;101925.00;5013020;28;20569;-89
2023/01/13 02:22:32;;;;;;;5.15;3.67;;;;;;;5.00;84.82;101909.66;5011736;28;20029;-88
2023/01/13 02:25:09;;;;;;;8.90;3.83;;;;;;;5.09;84.72;101928.41;4997355;28;20198;-88
2023/01/13 02:27:50;;;;;;;8.45;4.55;;;;;;;5.05;85.03;101923.31;5013187;28;20022;-89
2023/01/13 02:33:48;;;;;;;11.13;4.43;;;;;;;5.01;84.96;101919.91;5012094;28;20033;-88
2023/01/13 02:36:35;;;;;;;6.68;4.28;;;;;;;5.03;85.11;101915.63;5011813;28;20022;-89
2023/01/13 02:39:08;;;;;;;7.05;4.85;;;;;;;4.99;85.09;101907.94;5013065;28;20514;-88
2023/01/13 02:44:32;;;;;;;4.13;3.72;;;;;;;4.90;84.95;101907.13;4998096;28;20424;-89
2023/01/13 02:47:05;;;;;;;6.38;4.35;;;;;;;4.97;85.00;101912.25;4995915;28;20104;-89
2023/01/13 02:49:32;;;;;;;7.32;5.65;;;;;;;5.02;85.19;101915.66;5011286;28;20089;-89
2023/01/13 02:52:03;;;;;;;10.25;3.80;;;;;;;4.81;84.72;101886.66;5011151;28;20038;-88
2023/01/13 02:54:29;;;;;;;5.15;3.45;;;;;;;4.94;84.57;101909.69;5011460;28;20037;-89
2023/01/13 02:56:54;;;;;;;7.47;3.55;;;;;;;4.94;84.73;101920.81;5011398;28;20555;-89
2023/01/13 02:59:20;;;;;;;6.18;3.67;;;;;;;4.87;84.94;101904.59;4995080;28;20037;-89
2023/01/13 03:01:45;;;;;;;7.15;3.70;;;;;;;4.89;85.02;101913.13;5010903;28;20420;-88
2023/01/13 03:04:53;;;;;;;6.20;3.05;;;;;;;5.02;84.56;101918.22;4994635;28;20042;-88
2023/01/13 03:07:29;;;;;;;6.60;4.18;;;;;;;4.95;85.25;101924.22;5011268;28;20037;-88
2023/01/13 03:10:09;;;;;;;7.70;3.08;;;;;;;4.89;84.97;101919.97;5011209;28;20080;-88
2023/01/13 03:12:59;;;;;;;6.70;4.90;;;;;;;4.94;85.32;101931.06;4996143;28;20548;-89
2023/01/13 03:15:53;;;;;;;3.97;2.55;;;;;;;4.97;85.72;101931.03;5012237;28;20547;-89
2023/01/13 03:18:48;;;;;;;6.72;3.72;;;;;;;4.96;85.83;101923.38;5012229;28;20029;-87
2023/01/13 03:21:30;;;;;;;4.70;3.42;;;;;;;4.95;85.13;101926.78;4988201;28;20493;-88
2023/01/13 03:24:00;;;;;;;8.73;5.82;;;;;;;4.93;85.01;101928.50;5011032;28;20036;-88
2023/01/13 03:26:35;;;;;;;10.07;4.18;;;;;;;4.93;85.65;101923.38;5010969;28;20382;-90
2023/01/13 03:29:20;;;;;;;5.70;4.75;;;;;;;5.01;85.52;101926.75;5010530;28;20054;-88
2023/01/13 03:32:00;;;;;;;6.38;4.57;;;;;;;4.84;85.58;101904.63;5010391;28;20033;-88
2023/01/13 03:34:43;;;;;;;8.18;4.82;;;;;;;4.86;85.21;101904.59;5010654;28;20028;-88
2023/01/13 03:37:08;;;;;;;4.57;3.40;;;;;;;4.90;84.96;101908.84;4994556;28;20056;-89
2023/01/13 03:39:35;;;;;;;5.93;4.25;;;;;;;5.03;84.89;101925.03;4994367;28;20501;-89
2023/01/13 03:42:04;;;;;;;6.22;4.90;;;;;;;4.88;84.95;101901.16;4994064;28;20101;-89
2023/01/13 03:44:46;;;;;;;9.20;5.00;;;;;;;5.09;84.93;101928.41;5010265;28;20026;-88
2023/01/13 03:47:12;;;;;;;6.25;4.47;;;;;;;5.05;85.38;101929.28;4995717;28;20104;-88
2023/01/13 03:50:00;;;;;;;6.97;3.00;;;;;;;4.92;84.98;101899.47;5010897;28;20176;-88
2023/01/13 03:52:28;;;;;;;6.95;4.85;;;;;;;4.98;84.90;101901.13;5010411;28;20097;-89
2023/01/13 03:55:09;;;;;;;5.78;3.90;;;;;;;5.10;84.77;101929.25;4994492;28;20037;-89
2023/01/13 03:57:37;;;;;;;5.72;3.60;;;;;;;5.12;84.71;101930.13;4995082;28;20060;-89
2023/01/13 04:00:03;;;;;;;7.93;6.38;;;;;;;5.05;84.89;101921.59;4994672;28;20092;-89
2023/01/13 04:02:32;;;;;;;4.97;3.85;;;;;;;5.02;84.97;101924.19;4993771;28;20084;-92
2023/01/13 04:05:01;;;;;;;7.45;5.78;;;;;;;5.07;85.04;101926.72;5010626;28;20524;-88
2023/01/13 04:08:01;;;;;;;4.88;3.08;;;;;;;5.15;85.19;101935.22;4994580;28;20076;-88
2023/01/13 04:10:32;;;;;;;4.53;4.07;;;;;;;4.93;85.03;101905.44;5010048;28;20424;-88
2023/01/13 04:13:03;;;;;;;3.47;3.08;;;;;;;5.05;85.72;101925.88;5010201;28;20069;-89
2023/01/13 04:15:37;;;;;;;12.63;5.18;;;;;;;5.15;85.96;101937.78;4978154;28;20097;-88
2023/01/13 04:18:13;;;;;;;9.80;4.80;;;;;;;5.15;85.50;101942.94;4993805;28;20033;-88
2023/01/13 04:20:38;;;;;;;6.35;4.25;;;;;;;5.08;85.22;101936.13;5009976;28;20033;-89
2023/01/13 04:23:04;;;;;;;8.45;6.43;;;;;;;5.18;84.69;101941.19;4993832;28;20556;-89
2023/01/13 04:25:30;;;;;;;7.40;4.68;;;;;;;5.16;84.06;101932.66;4977513;28;20037;-88
2023/01/13 04:27:55;;;;;;;3.90;3.53;;;;;;;5.06;84.62;101915.59;4977446;28;20052;-84
2023/01/13 04:30:21;;;;;;;7.18;4.65;;;;;;;5.04;84.46;101908.78;4993524;28;20061;-85
2023/01/13 04:32:46;;;;;;;3.72;2.50;;;;;;;5.12;83.87;101914.72;5009619;28;20412;-85
2023/01/13 04:35:12;;;;;;;7.38;2.70;;;;;;;5.26;83.18;101938.59;5009661;28;20120;-89
2023/01/13 04:37:37;;;;;;;5.13;3.88;;;;;;;4.90;83.22;101889.19;4993458;28;20464;-81
2023/01/13 04:40:03;;;;;;;10.05;3.92;;;;;;;5.17;83.44;101943.75;5009611;28;20030;-84
2023/01/13 04:42:29;;;;;;;5.43;4.78;;;;;;;5.23;83.71;101940.31;5010455;28;20030;-85
2023/01/13 04:44:55;;;;;;;12.30;7.32;;;;;;;4.95;84.05;101908.84;5010788;28;20022;-82
2023/01/13 04:47:21;;;;;;;9.48;5.85;;;;;;;5.14;84.16;101956.63;5009586;28;20040;-82
2023/01/13 04:49:46;;;;;;;10.32;5.35;;;;;;;5.07;84.21;101957.50;5014339;28;20046;-87
2023/01/13 04:52:11;;;;;;;8.75;6.88;;;;;;;5.14;84.25;101954.91;5016988;28;20025;-87
2023/01/13 04:54:37;;;;;;;15.80;7.53;;;;;;;4.99;84.46;101947.28;5033560;28;20092;-86
2023/01/13 04:57:02;;;;;;;8.30;4.78;;;;;;;5.07;84.57;101954.94;5032833;28;20032;-89
2023/01/13 04:59:28;;;;;;;8.60;6.32;;;;;;;4.94;84.52;101935.34;5016869;28;20132;-88
2023/01/13 05:01:53;;;;;;;10.60;6.32;;;;;;;4.83;85.43;101920.88;5016374;28;20036;-88
2023/01/13 05:04:19;;;;;;;8.27;5.22;;;;;;;4.95;85.31;101942.19;5033141;28;20399;-92
2023/01/13 05:06:44;;;;;;;9.15;5.53;;;;;;;5.03;85.35;101955.81;5016874;28;20120;-82
2023/01/13 05:09:12;;;;;;;9.32;5.78;;;;;;;4.86;85.01;101922.56;5032324;28;20497;-81
2023/01/13 05:17:06;;;;;;;5.50;3.58;;;;;;;4.82;84.08;101915.75;5025651;28;20068;-84
2023/01/13 05:19:37;;;;;;;8.02;5.07;;;;;;;4.99;83.33;101943.84;5013194;28;20050;-84
2023/01/13 05:27:31;;;;;;;7.55;4.60;;;;;;;5.39;84.61;101975.28;5023973;28;20091;-88
2023/01/13 05:29:56;;;;;;;8.15;4.07;;;;;;;5.27;82.88;101959.97;5016981;28;20113;-87
2023/01/13 05:32:22;;;;;;;7.25;6.38;;;;;;;5.22;83.37;101971.97;5013125;28;20070;-86
2023/01/13 05:34:48;;;;;;;8.55;4.57;;;;;;;5.12;83.78;101963.47;5014628;28;20032;-88
2023/01/13 05:37:13;;;;;;;6.43;4.60;;;;;;;5.14;83.71;101977.13;4996548;28;20516;-91
2023/01/13 05:45:08;;;;;;;10.15;5.55;;;;;;;5.13;83.93;101970.31;4999257;28;20041;-90
2023/01/13 05:47:33;;;;;;;6.63;4.85;;;;;;;5.10;83.78;101962.59;4997845;28;20100;-91
2023/01/13 05:49:59;;;;;;;5.20;3.90;;;;;;;5.05;83.08;101954.94;4997320;28;20057;-88
2023/01/13 05:52:24;;;;;;;9.23;6.90;;;;;;;5.21;83.21;101973.69;4981912;28;20116;-90
2023/01/13 05:54:50;;;;;;;9.02;5.05;;;;;;;5.23;83.44;101979.66;4996242;28;20034;-83
2023/01/13 05:57:16;;;;;;;6.63;4.45;;;;;;;5.14;83.95;101972.00;5003183;28;20037;-88
2023/01/13 05:59:41;;;;;;;10.30;6.32;;;;;;;5.15;84.07;101968.56;5014786;28;20048;-87
2023/01/13 06:02:07;;;;;;;7.35;4.30;;;;;;;5.12;84.57;101971.16;5030782;28;20028;-86
2023/01/13 06:04:32;;;;;;;7.85;5.63;;;;;;;5.15;84.31;101971.16;4999234;28;20048;-91
2023/01/13 06:06:58;;;;;;;8.23;5.47;;;;;;;5.12;84.21;101968.59;5032702;28;20018;-88
2023/01/13 06:09:23;;;;;;;9.13;5.03;;;;;;;5.01;84.60;101947.25;5031781;28;20377;-87
2023/01/13 06:11:49;;;;;;;6.95;5.50;;;;;;;5.14;84.66;101972.00;5032090;28;20064;-93
2023/01/13 06:14:14;;;;;;;5.78;4.28;;;;;;;5.07;84.52;101952.38;5019228;28;20030;-89
2023/01/13 06:16:40;;;;;;;6.32;4.45;;;;;;;5.23;85.17;101984.78;4991090;28;20498;-87
2023/01/13 06:19:11;;;;;;;5.32;4.55;;;;;;;5.01;84.85;101954.94;4996041;28;20108;-87
2023/01/13 06:21:40;;;;;;;5.50;4.47;;;;;;;4.99;84.34;101954.13;5005198;28;20385;-86
2023/01/13 06:24:06;;;;;;;6.07;4.35;;;;;;;5.23;83.89;101996.78;5015789;28;20116;-88
2023/01/13 06:26:35;;;;;;;5.15;4.15;;;;;;;5.09;84.42;101976.28;5001300;28;20026;-86
2023/01/13 06:29:00;;;;;;;6.75;3.75;;;;;;;5.13;84.10;101986.56;4993146;28;20050;-92
2023/01/13 06:31:27;;;;;;;14.00;6.80;;;;;;;5.06;84.86;101984.00;4984179;28;20121;-89
2023/01/13 06:33:58;;;;;;;4.40;2.70;;;;;;;5.00;84.85;101960.94;4995578;28;20033;-89
2023/01/13 06:36:26;;;;;;;6.43;5.03;;;;;;;5.15;84.44;101991.66;4995621;28;20076;-85
2023/01/13 06:38:53;;;;;;;5.07;3.75;;;;;;;5.09;87.41;101976.28;5004145;28;20025;-86
2023/01/13 06:44:12;;;;;;;7.40;5.93;;;;;;;5.13;85.14;101985.69;5000759;28;20088;-90
2023/01/13 06:46:37;;;;;;;8.50;4.97;;;;;;;5.08;84.73;101972.03;5000608;28;20033;-91
2023/01/13 06:49:03;;;;;;;8.60;4.90;;;;;;;5.20;84.86;101997.63;5009485;28;20053;-91
2023/01/13 06:51:29;;;;;;;8.18;5.40;;;;;;;5.22;84.94;101993.34;5001981;28;20062;-89
2023/01/13 06:53:54;;;;;;;10.52;5.90;;;;;;;5.44;89.52;101981.25;5006822;28;20048;-91
2023/01/13 06:56:20;;;;;;;10.65;5.63;;;;;;;5.28;85.79;101977.06;5013334;28;20029;-87
2023/01/13 06:58:45;;;;;;;9.55;6.75;;;;;;;5.37;84.73;101982.13;5024768;28;20087;-88
2023/01/13 07:01:11;;;;;;;13.23;6.47;;;;;;;5.45;84.55;101983.81;4997311;28;20041;-87
2023/01/13 07:03:36;;;;;;;15.88;7.32;;;;;;;5.46;83.54;101985.50;5015948;28;20026;-90
2023/01/13 07:06:02;;;;;;;14.77;7.03;;;;;;;5.54;83.15;101994.88;5004196;28;20038;-88
2023/01/13 07:08:27;;;;;;;16.63;9.48;;;;;;;5.50;84.02;101995.75;5007362;28;20034;-87
2023/01/13 07:10:53;;;;;;;12.52;8.27;;;;;;;5.52;83.87;102002.59;5027377;28;20033;-87
2023/01/13 07:16:04;;;;;;;6.97;5.15;;;;;;;5.60;83.65;101999.94;5003782;28;20428;-91
2023/01/13 07:18:33;;;;;;;9.63;4.43;;;;;;;5.68;83.48;101985.34;5012405;28;20068;-87
2023/01/13 07:21:02;;;;;;;14.65;8.25;;;;;;;5.78;81.84;101988.72;5031141;28;20090;-89
2023/01/13 07:23:29;;;;;;;6.05;5.15;;;;;;;5.82;82.77;101998.97;5030995;28;20029;-92
2023/01/13 07:25:55;;;;;;;8.68;6.18;;;;;;;5.80;81.73;102002.38;5011448;28;20029;-89
2023/01/13 07:28:21;;;;;;;11.80;7.63;;;;;;;5.61;82.59;101996.56;5020422;28;20033;-94
2023/01/13 07:30:46;;;;;;;9.15;5.85;;;;;;;5.70;83.12;102006.72;5013152;28;20025;-90
2023/01/13 07:33:12;;;;;;;10.30;5.82;;;;;;;5.67;83.58;102007.63;5016899;28;20029;-92
2023/01/13 07:35:37;;;;;;;13.75;7.57;;;;;;;5.67;82.51;102007.63;5030277;28;20515;-89
2023/01/13 07:38:03;;;;;;;9.68;5.75;;;;;;;5.64;82.95;102020.47;5018024;28;20025;-94
2023/01/13 07:40:28;;;;;;;12.88;8.13;;;;;;;5.64;83.21;102011.94;5015479;28;20045;-90
2023/01/13 07:45:37;;;;;;;16.63;9.10;;;;;;;5.73;82.65;102017.00;5020598;28;20044;-86
2023/01/13 07:48:03;;;;;;;12.68;8.60;;;;;;;5.75;82.64;102018.69;4990769;28;20030;-93
2023/01/13 07:50:29;;;;;;;18.83;10.48;;;;;;;5.72;82.65;102018.72;4996885;28;20394;-93
2023/01/13 07:52:57;;;;;;;20.08;11.40;;;;;;;5.73;82.86;102023.00;4995730;28;20060;-88
2023/01/13 07:55:22;;;;;;;19.25;12.35;;;;;;;5.81;83.31;102024.66;5006713;28;20053;-90
2023/01/13 07:57:48;;;;;;;19.70;13.85;;;;;;;5.86;82.74;102028.88;4992055;28;20034;-92
2023/01/13 08:00:14;;;;;;;25.48;14.13;;;;;;;5.85;83.30;102031.47;4978373;28;20068;-90
2023/01/13 08:02:39;;;;;;;21.05;14.80;;;;;;;5.78;83.45;102012.66;5002999;28;20113;-86
2023/01/13 08:05:05;;;;;;;24.83;11.70;;;;;;;5.72;83.45;102005.88;5010094;28;20026;-91
2023/01/13 08:07:31;;;;;;;25.50;13.73;;;;;;;5.83;82.64;102018.66;5016440;28;20029;-87
2023/01/13 08:09:56;;;;;;;19.40;11.57;;;;;;;5.85;83.18;102021.19;5003387;28;20021;-88
2023/01/13 08:15:08;;;;;;;15.93;11.27;;;;;;;5.97;83.26;102031.41;5014886;28;20036;-90
2023/01/13 08:17:34;;;;;;;16.83;9.95;;;;;;;6.03;83.42;102037.34;5018603;28;20065;-89
2023/01/13 08:20:00;;;;;;;9.18;7.22;;;;;;;6.08;83.21;102032.16;5021653;28;20476;-86
2023/01/13 08:22:25;;;;;;;14.25;7.95;;;;;;;6.06;82.75;102030.50;5012627;28;20083;-85
2023/01/13 08:24:51;;;;;;;19.95;7.15;;;;;;;6.02;82.43;102032.25;5013144;28;20075;-96
2023/01/13 08:27:19;;;;;;;19.67;9.38;;;;;;;6.09;82.66;102035.59;5007303;28;20022;-86
2023/01/13 08:29:44;;;;;;;19.65;11.18;;;;;;;6.13;81.39;102042.44;5000428;28;20069;-95
2023/01/13 08:32:10;;;;;;;22.50;11.88;;;;;;;6.08;81.64;102033.88;5013064;28;20488;-95
2023/01/13 08:34:35;;;;;;;17.98;11.05;;;;;;;6.12;82.19;102051.84;4998056;28;20440;-86
2023/01/13 08:37:01;;;;;;;34.28;12.40;;;;;;;6.17;82.49;102051.81;4993729;28;20026;-86
2023/01/13 08:39:26;;;;;;;22.65;10.27;;;;;;;6.00;81.51;102023.69;4994087;28;20056;-89
2023/01/13 08:41:55;;;;;;;25.60;12.27;;;;;;;6.07;81.86;102029.63;4993631;28;20480;-92
2023/01/13 08:44:28;;;;;;;16.48;9.90;;;;;;;6.02;81.46;102021.97;4993453;28;20032;-85
2023/01/13 08:46:53;;;;;;;;;;;;;;;6.19;81.75;102050.06;4997646;28;20049;-87
2023/01/13 08:49:19;;;;;;;12.65;10.00;;;;;;;6.07;82.87;102039.91;5022050;28;20356;-87
2023/01/13 08:51:44;;;;;;;12.93;7.90;;;;;;;6.09;81.81;102051.00;4975506;28;20057;-86
2023/01/13 08:54:10;;;;;;;11.50;8.55;;;;;;;6.11;82.28;102044.16;4993439;28;20038;-87
2023/01/13 08:56:35;;;;;;;7.10;5.55;;;;;;;6.00;82.90;102037.41;4993740;28;20029;-85
2023/01/13 08:59:01;;;;;;;10.23;6.72;;;;;;;6.03;83.64;102027.09;5025514;28;20053;-86
2023/01/13 09:01:26;;;;;;;11.65;7.18;;;;;;;6.11;82.87;102041.59;4994760;28;20040;-91
2023/01/13 09:03:52;;;;;;;17.88;9.50;;;;;;;6.04;84.05;102033.94;5001766;28;20110;-89
2023/01/13 09:06:18;;;;;;;14.38;8.55;;;;;;;6.22;82.97;102040.63;5013366;28;20037;-91
2023/01/13 09:08:44;;;;;;;16.33;8.55;;;;;;;6.14;82.46;102028.72;4986455;28;20543;-85
2023/01/13 09:14:09;;;;;;;15.77;10.40;;;;;;;6.18;82.30;102040.66;5008939;28;20052;-86
2023/01/13 09:16:34;;;;;;;19.52;10.68;;;;;;;6.13;83.31;102034.72;5012407;28;20485;-92
2023/01/13 09:18:59;;;;;;;15.73;8.77;;;;;;;6.16;83.11;102032.13;5008265;28;20041;-89
2023/01/13 09:21:25;;;;;;;17.33;9.10;;;;;;;5.98;82.21;101998.00;4984143;28;20072;-89
2023/01/13 09:23:50;;;;;;;14.05;9.27;;;;;;;6.07;82.10;102009.91;5018920;28;20110;-94
2023/01/13 09:26:19;;;;;;;18.90;9.85;;;;;;;6.07;82.57;102017.63;4994528;28;20105;-91
2023/01/13 09:28:44;;;;;;;16.58;11.43;;;;;;;6.15;83.30;102021.00;5018533;28;20096;-90
2023/01/13 09:31:09;;;;;;;15.35;10.48;;;;;;;6.06;83.53;102015.06;4993343;28;20026;-94
2023/01/13 09:36:19;;;;;;;15.52;9.25;;;;;;;6.06;82.95;101997.09;5014881;28;20063;-88
2023/01/13 09:38:44;;;;;;;16.90;10.60;;;;;;;6.24;82.80;102026.06;4983249;28;20029;-90
2023/01/13 09:43:52;;;;;;;19.17;9.77;;;;;;;6.29;82.93;102023.44;5017055;28;20088;-87
2023/01/13 09:44:03;;;;;;;10.23;7.25;;;;;;;6.35;82.83;102007.97;5000701;28;20033;-91
2023/01/13 09:46:46;;;;;;;14.82;9.25;;;;;;;6.39;82.58;102021.63;4996716;28;20034;-85
2023/01/13 09:49:19;;;;;;;21.23;9.27;;;;;;;6.35;82.81;102023.38;5012474;28;20060;-85
2023/01/13 09:52:06;;;;;;;15.38;9.52;;;;;;;6.33;83.08;102022.56;4982309;28;20052;-90
2023/01/13 09:54:47;;;;;;;21.00;11.75;;;;;;;6.31;83.29;102003.72;5017251;28;20039;-89
2023/01/13 09:57:16;;;;;;;19.30;9.50;;;;;;;6.35;83.08;102009.69;5001879;28;20084;-92
2023/01/13 09:59:42;;;;;;;22.27;8.50;;;;;;;6.37;83.31;102006.22;5005906;28;20415;-87
2023/01/13 10:02:16;;;;;;;9.93;7.53;;;;;;;6.49;82.01;102011.28;5024042;28;20033;-86
2023/01/13 10:04:42;;;;;;;10.98;7.68;;;;;;;6.42;82.08;101999.34;5044087;28;20100;-86
2023/01/13 10:07:13;;;;;;;12.73;6.95;;;;;;;6.47;81.69;102007.84;5012875;28;20480;-86
2023/01/13 10:09:48;;;;;;;12.50;5.30;;;;;;;6.51;81.49;102008.69;5010108;28;20427;-89
2023/01/13 10:15:01;;;;;;;12.75;6.50;;;;;;;6.42;81.15;101976.19;5006874;28;20554;-88
2023/01/13 10:17:33;;;;;;;14.88;7.82;;;;;;;6.51;81.13;101994.09;5012311;28;20072;-91
2023/01/13 10:20:20;;;;;;;13.27;5.80;;;;;;;6.54;80.82;101999.19;5047877;28;20473;-86
2023/01/13 10:23:17;;;;;;;23.27;7.68;;;;;;;6.66;81.85;101987.06;5024129;28;20044;-85
2023/01/13 10:25:52;;;;;;;13.05;7.13;;;;;;;6.60;80.87;101994.00;4984123;28;20089;-91
2023/01/13 10:28:18;;;;;;;22.55;8.20;;;;;;;6.44;80.50;101979.59;5028856;28;20034;-89
2023/01/13 10:30:45;;;;;;;13.15;7.07;;;;;;;6.61;80.27;101993.13;5004183;28;20032;-91
2023/01/13 10:33:16;;;;;;;14.43;7.07;;;;;;;6.63;80.73;101987.13;5006535;28;20041;-90
2023/01/13 10:35:48;;;;;;;12.45;7.63;;;;;;;6.66;80.07;101993.06;5002213;28;20022;-89
2023/01/13 10:38:22;;;;;;;14.73;8.55;;;;;;;6.64;80.66;101975.97;5013532;28;20022;-93
2023/01/13 10:40:59;;;;;;;15.10;8.93;;;;;;;6.68;80.68;101975.91;5022605;28;20043;-86
2023/01/13 10:43:25;;;;;;;24.83;9.50;;;;;;;6.49;80.43;101930.69;5003336;28;20604;-88
2023/01/13 10:46:09;;;;;;;15.82;8.02;;;;;;;6.65;79.96;101950.22;5021410;28;20017;-87
2023/01/13 10:48:54;;;;;;;15.68;8.60;;;;;;;6.73;80.77;101960.44;4977622;28;20049;-89
2023/01/13 10:51:38;;;;;;;15.65;8.07;;;;;;;6.95;80.36;101966.16;4979103;28;20507;-88
2023/01/13 10:54:12;;;;;;;18.27;8.00;;;;;;;7.10;80.03;101974.56;5025661;28;20113;-88
2023/01/13 10:56:40;;;;;;;15.35;8.57;;;;;;;7.30;80.01;101950.25;5027521;28;20022;-90
2023/01/13 10:59:28;;;;;;;13.70;7.20;;;;;;;7.41;78.42;101961.25;4995364;28;20131;-91
2023/01/13 11:02:02;;;;;;;14.07;7.38;;;;;;;7.39;78.00;101950.13;5015110;28;20119;-86
2023/01/13 11:04:38;;;;;;;15.25;7.75;;;;;;;7.46;78.92;101956.88;5030967;28;20029;-85
2023/01/13 11:07:15;;;;;;;16.20;6.93;;;;;;;7.56;77.53;101955.84;4997711;28;20028;-93
2023/01/13 11:09:40;;;;;;;16.65;7.75;;;;;;;7.43;76.87;101918.31;4996548;28;20040;-90
2023/01/13 11:12:10;;;;;;;12.30;7.72;;;;;;;7.44;76.56;101940.59;5014531;28;20030;-86
2023/01/13 11:14:40;;;;;;;12.25;7.78;;;;;;;7.47;77.02;101958.56;4996343;28;20030;-86
2023/01/13 11:17:31;;;;;;;19.33;8.13;;;;;;;7.47;77.06;101954.31;5009159;28;20056;-88
2023/01/13 11:20:04;;;;;;;14.20;7.75;;;;;;;7.35;77.52;101945.88;5023708;28;20029;-89
2023/01/13 11:22:46;;;;;;;39.28;17.95;;;;;;;7.36;78.17;101947.56;5014880;28;20044;-91
2023/01/13 11:25:41;;;;;;;17.58;9.98;;;;;;;7.41;77.42;101951.81;4978290;28;20117;-95
2023/01/13 11:28:28;;;;;;;20.52;8.65;;;;;;;7.45;78.12;101947.44;5019127;28;20132;-91
2023/01/13 11:31:30;;;;;;;18.80;9.88;;;;;;;7.33;77.05;101945.06;5015956;28;20512;-88
2023/01/13 11:34:03;;;;;;;15.73;7.93;;;;;;;7.35;76.65;101945.88;4994037;28;20026;-87
2023/01/13 11:36:42;;;;;;;19.33;10.32;;;;;;;7.32;77.50;101943.38;5010932;28;20139;-87
2023/01/13 11:39:13;;;;;;;24.63;14.40;;;;;;;7.17;77.87;101934.97;4980077;28;20037;-88
2023/01/13 11:42:19;;;;;;;24.98;12.35;;;;;;;7.29;77.72;101944.25;5005177;28;20030;-85
2023/01/13 11:44:45;;;;;;;27.75;15.27;;;;;;;7.34;77.42;101946.75;5010937;28;20030;-85
2023/01/13 11:47:11;;;;;;;34.92;15.73;;;;;;;7.17;78.37;101903.22;5007826;28;20030;-89
2023/01/13 11:49:37;;;;;;;39.70;23.23;;;;;;;7.18;78.76;101910.97;4994144;28;20058;-91
2023/01/13 11:52:16;;;;;;;18.75;11.15;;;;;;;7.38;77.63;101930.41;4978254;28;20036;-86
2023/01/13 11:54:57;;;;;;;38.13;11.48;;;;;;;7.45;77.09;101937.16;5011420;28;20032;-89
2023/01/13 11:57:36;;;;;;;21.52;12.00;;;;;;;7.42;77.37;101938.06;5009011;28;20107;-84
2023/01/13 12:00:29;;;;;;;19.95;11.63;;;;;;;7.33;77.80;101909.03;5018232;28;20032;-84
2023/01/13 12:03:14;;;;;;;14.45;9.18;;;;;;;7.42;76.97;101916.59;5020321;28;20034;-91
2023/01/13 12:05:43;;;;;;;18.73;10.15;;;;;;;7.53;77.00;101926.75;4995506;28;20554;-89
2023/01/13 12:08:24;;;;;;;22.02;11.38;;;;;;;7.37;76.33;101898.63;4998843;28;20681;-95
2023/01/13 12:10:58;;;;;;;16.73;10.45;;;;;;;7.64;76.84;101925.69;4998579;28;20057;-90
2023/01/13 12:14:09;;;;;;;23.48;11.40;;;;;;;7.64;75.77;101917.97;5005144;28;20084;-94
2023/01/13 12:16:35;;;;;;;16.02;10.00;;;;;;;7.78;75.97;101924.63;5001762;28;20021;-87
2023/01/13 12:19:19;;;;;;;20.55;9.60;;;;;;;7.84;76.01;101930.50;4990859;28;20034;-89
2023/01/13 12:21:55;;;;;;;18.60;11.05;;;;;;;7.84;75.47;101924.50;5018918;28;20029;-92
2023/01/13 12:24:28;;;;;;;20.60;11.70;;;;;;;7.85;75.76;101923.63;5008856;28;20064;-89
2023/01/13 12:27:12;;;;;;;16.63;11.15;;;;;;;7.89;75.34;101915.00;5009262;28;20049;-91
2023/01/13 12:29:55;;;;;;;23.33;10.57;;;;;;;7.82;74.67;101909.09;5011384;28;20041;-95
2023/01/13 12:32:26;;;;;;;18.55;8.70;;;;;;;7.88;75.37;101914.16;4978011;28;20061;-90
2023/01/13 12:35:07;;;;;;;18.85;10.07;;;;;;;7.84;75.48;101901.31;4993307;28;20026;-89